Time;durP1;ratioP1;P1;durP2;ratioP2;P2;SDS_P1;SDS_P2;PMS_P1;PMS_P2;Temp;Humidity;BMP_temperature;BMP_pressure;BME280_temperature;BME280_humidity;BME280_pressure;Samples;Min_cycle;Max_cycle;Signal;HPM_P1;HPM_P2
2022/05/16 00:01:50;;;;;;;9.83;5.43;;;15.30;99.90;;;;;;5033775;28;20531;-75
2022/05/16 00:04:17;;;;;;;7.57;5.40;;;15.20;99.90;;;;;;5032399;28;20461;-75
2022/05/16 00:06:44;;;;;;;8.30;5.57;;;15.20;99.90;;;;;;5023053;28;20450;-75
2022/05/16 00:09:10;;;;;;;12.20;6.03;;;15.20;99.90;;;;;;5040227;28;20482;-75
2022/05/16 00:11:37;;;;;;;10.43;5.70;;;15.10;99.90;;;;;;5027138;28;21089;-75
2022/05/16 00:14:04;;;;;;;20.50;5.40;;;15.10;99.90;;;;;;5032151;28;20445;-75
2022/05/16 00:16:30;;;;;;;11.80;5.20;;;15.10;99.90;;;;;;5032379;28;20531;-75
2022/05/16 00:18:58;;;;;;;11.10;4.87;;;15.00;99.90;;;;;;5014013;28;20865;-75
2022/05/16 00:21:25;;;;;;;11.10;5.93;;;15.00;99.90;;;;;;5013866;28;20478;-75
2022/05/16 00:23:52;;;;;;;11.07;5.77;;;15.00;99.90;;;;;;5019883;28;20478;-75
2022/05/16 00:26:19;;;;;;;16.83;4.73;;;14.90;99.90;;;;;;5033397;28;20488;-75
2022/05/16 00:28:45;;;;;;;8.07;5.37;;;14.90;99.90;;;;;;5033417;28;20491;-75
2022/05/16 00:31:12;;;;;;;9.97;5.73;;;14.90;99.90;;;;;;5033261;28;20838;-75
2022/05/16 00:33:39;;;;;;;11.13;5.87;;;14.90;99.90;;;;;;5014510;28;20589;-75
2022/05/16 00:36:07;;;;;;;16.93;6.00;;;14.80;99.90;;;;;;5015471;28;20454;-75
2022/05/16 00:38:33;;;;;;;14.67;5.50;;;14.80;99.90;;;;;;5031296;28;20868;-75
2022/05/16 00:41:02;;;;;;;8.40;6.23;;;14.70;99.90;;;;;;5023991;28;21035;-75
2022/05/16 00:43:45;;;;;;;7.87;5.87;;;14.70;99.90;;;;;;5021277;28;20508;-75
2022/05/16 00:46:12;;;;;;;8.90;6.17;;;14.70;99.90;;;;;;5033219;28;21003;-75
2022/05/16 00:48:39;;;;;;;10.47;5.20;;;14.70;99.90;;;;;;5032941;28;20477;-75
2022/05/16 00:51:12;;;;;;;7.43;5.63;;;14.70;99.90;;;;;;5033236;28;20477;-75
2022/05/16 00:53:39;;;;;;;15.10;7.03;;;14.60;99.90;;;;;;5027161;28;21024;-75
2022/05/16 00:56:06;;;;;;;13.47;6.47;;;14.60;99.90;;;;;;5027912;28;21122;-75
2022/05/16 00:58:36;;;;;;;10.73;5.50;;;14.70;99.90;;;;;;5015950;28;20445;-75
2022/05/16 01:01:03;;;;;;;9.50;5.93;;;14.70;99.90;;;;;;5032744;28;20527;-75
2022/05/16 01:06:15;;;;;;;6.83;5.30;;;14.60;99.90;;;;;;5014247;28;20524;-75
2022/05/16 01:08:43;;;;;;;15.50;6.00;;;14.60;99.90;;;;;;5025964;28;20478;-75
2022/05/16 01:11:13;;;;;;;10.50;6.00;;;14.60;99.90;;;;;;5030092;28;20994;-75
2022/05/16 01:13:40;;;;;;;9.00;5.30;;;14.50;99.90;;;;;;5031276;28;20507;-75
2022/05/16 01:16:07;;;;;;;12.27;6.20;;;14.50;99.90;;;;;;5032210;28;20453;-75
2022/05/16 01:18:34;;;;;;;11.07;5.80;;;14.50;99.90;;;;;;5031808;28;20445;-75
2022/05/16 01:21:26;;;;;;;14.83;6.50;;;14.50;99.90;;;;;;5029676;28;20466;-75
2022/05/16 01:23:57;;;;;;;12.40;5.90;;;14.50;99.90;;;;;;5051870;28;20574;-75
2022/05/16 01:26:25;;;;;;;9.40;6.47;;;14.40;99.90;;;;;;5019964;28;20946;-75
2022/05/16 01:28:53;;;;;;;19.27;6.80;;;14.40;99.90;;;;;;5014771;28;20481;-75
2022/05/16 01:31:20;;;;;;;16.50;6.50;;;14.40;99.90;;;;;;5031910;28;20477;-75
2022/05/16 01:33:46;;;;;;;9.67;5.97;;;14.40;99.90;;;;;;5031949;28;20453;-75
2022/05/16 01:36:13;;;;;;;10.60;5.50;;;14.40;99.90;;;;;;5031550;28;20503;-75
2022/05/16 01:38:41;;;;;;;15.47;6.80;;;14.40;99.90;;;;;;5031462;28;20449;-75
2022/05/16 01:41:11;;;;;;;10.73;5.67;;;14.30;99.90;;;;;;5012520;28;20856;-75
2022/05/16 01:43:44;;;;;;;12.43;6.13;;;14.30;99.90;;;;;;5011753;28;20878;-75
2022/05/16 01:46:15;;;;;;;10.30;5.57;;;14.30;99.90;;;;;;5020722;28;20519;-75
2022/05/16 01:48:41;;;;;;;11.43;6.80;;;14.30;99.90;;;;;;5029902;28;20489;-75
2022/05/16 01:51:11;;;;;;;10.17;5.40;;;14.40;99.90;;;;;;5016904;28;20523;-75
2022/05/16 01:53:38;;;;;;;10.10;6.30;;;14.40;99.90;;;;;;5024641;28;20850;-75
2022/05/16 01:56:05;;;;;;;17.27;6.87;;;14.40;99.90;;;;;;5012127;28;21017;-75
2022/05/16 01:58:33;;;;;;;15.60;6.37;;;14.30;99.90;;;;;;5011990;28;20470;-75
2022/05/16 02:01:00;;;;;;;11.30;6.60;;;14.30;99.90;;;;;;5016900;28;20477;-75
2022/05/16 02:03:27;;;;;;;10.27;5.50;;;14.30;99.90;;;;;;5030443;28;20449;-75
2022/05/16 02:05:54;;;;;;;15.13;7.57;;;14.20;99.90;;;;;;5020490;28;20550;-75
2022/05/16 02:08:20;;;;;;;12.90;6.63;;;14.20;99.90;;;;;;5027022;28;20469;-75
2022/05/16 02:10:47;;;;;;;10.07;6.37;;;14.10;99.90;;;;;;5033709;28;20464;-75
2022/05/16 02:13:14;;;;;;;15.40;6.83;;;14.10;99.90;;;;;;5028929;28;20457;-75
2022/05/16 02:15:45;;;;;;;12.90;6.33;;;14.00;99.90;;;;;;5031150;28;21025;-75
2022/05/16 02:18:12;;;;;;;15.60;6.40;;;14.00;99.90;;;;;;5031006;28;20519;-75
2022/05/16 02:20:39;;;;;;;15.93;6.67;;;13.80;99.90;;;;;;5031400;28;20457;-75
2022/05/16 02:25:51;;;;;;;16.00;5.90;;;13.70;99.90;;;;;;5031210;28;20516;-75
2022/05/16 02:28:19;;;;;;;11.67;6.33;;;13.70;99.90;;;;;;5031489;28;20507;-75
2022/05/16 02:30:47;;;;;;;11.30;6.20;;;13.70;99.90;;;;;;5012637;28;20485;-75
2022/05/16 02:33:16;;;;;;;18.43;6.60;;;13.60;99.90;;;;;;5011105;28;20454;-75
2022/05/16 02:35:44;;;;;;;12.73;6.67;;;13.60;99.90;;;;;;5025222;28;20867;-75
2022/05/16 02:38:12;;;;;;;11.67;6.50;;;13.60;99.90;;;;;;5037990;28;20506;-75
2022/05/16 02:40:39;;;;;;;12.97;6.83;;;13.60;99.90;;;;;;5037599;28;20888;-75
2022/05/16 02:43:06;;;;;;;11.00;6.37;;;13.60;99.90;;;;;;5037764;28;20941;-75
2022/05/16 02:45:34;;;;;;;13.57;6.13;;;13.60;99.90;;;;;;5036723;28;21159;-75
2022/05/16 02:48:03;;;;;;;10.37;6.77;;;13.60;99.90;;;;;;5037443;28;20452;-75
2022/05/16 02:50:30;;;;;;;13.53;6.33;;;13.60;99.90;;;;;;5018129;28;20485;-75
2022/05/16 02:52:57;;;;;;;13.80;6.60;;;13.60;99.90;;;;;;5019958;28;20478;-75
2022/05/16 02:55:23;;;;;;;11.63;6.97;;;13.60;99.90;;;;;;5037027;28;20806;-75
2022/05/16 02:57:50;;;;;;;15.63;6.73;;;13.60;99.90;;;;;;5017997;28;20806;-75
2022/05/16 03:00:18;;;;;;;10.60;6.00;;;13.60;99.90;;;;;;5018850;28;20450;-75
2022/05/16 03:02:45;;;;;;;12.43;6.30;;;13.50;99.90;;;;;;5037019;28;20469;-75
2022/05/16 03:05:14;;;;;;;11.43;7.03;;;13.50;99.90;;;;;;5036933;28;20945;-75
2022/05/16 03:07:40;;;;;;;12.43;6.80;;;13.50;99.90;;;;;;5037791;28;20480;-75
2022/05/16 03:10:09;;;;;;;13.10;6.17;;;13.60;99.90;;;;;;5039788;28;20527;-75
2022/05/16 03:12:35;;;;;;;11.50;6.80;;;13.60;99.90;;;;;;5022286;28;20528;-75
2022/05/16 03:15:02;;;;;;;16.30;6.90;;;13.60;99.90;;;;;;5017129;28;20445;-75
2022/05/16 03:17:29;;;;;;;10.23;6.63;;;13.60;99.90;;;;;;5025463;28;20871;-75
2022/05/16 03:19:55;;;;;;;12.00;6.57;;;13.70;99.90;;;;;;5018139;28;20503;-75
2022/05/16 03:22:23;;;;;;;13.00;6.63;;;13.70;99.90;;;;;;5027937;28;20477;-75
2022/05/16 03:24:51;;;;;;;11.70;6.07;;;13.70;99.90;;;;;;5036960;28;20832;-75
2022/05/16 03:27:18;;;;;;;10.83;6.17;;;13.70;99.90;;;;;;5037263;28;20583;-75
2022/05/16 03:29:46;;;;;;;13.00;7.00;;;13.70;99.90;;;;;;5036019;28;20481;-74
2022/05/16 03:32:13;;;;;;;8.50;5.60;;;13.60;99.90;;;;;;5032600;28;20571;-75
2022/05/16 03:34:39;;;;;;;13.37;6.50;;;13.60;99.90;;;;;;5036650;28;20453;-75
2022/05/16 03:37:06;;;;;;;9.00;5.40;;;13.60;99.90;;;;;;5037808;28;20460;-75
2022/05/16 03:42:18;;;;;;;15.07;7.20;;;13.60;99.90;;;;;;5030415;28;20468;-74
2022/05/16 03:44:45;;;;;;;11.87;6.60;;;13.60;99.90;;;;;;5016884;28;20454;-74
2022/05/16 03:47:12;;;;;;;11.93;6.77;;;13.60;99.90;;;;;;5028873;28;20536;-73
2022/05/16 03:49:38;;;;;;;12.80;6.50;;;13.60;99.90;;;;;;5015487;28;20489;-73
2022/05/16 03:52:05;;;;;;;15.03;6.57;;;13.70;99.90;;;;;;5034242;28;20985;-73
2022/05/16 03:54:33;;;;;;;9.97;5.63;;;13.70;99.90;;;;;;5033198;28;20515;-74
2022/05/16 03:57:00;;;;;;;10.50;6.07;;;13.70;99.90;;;;;;5021335;28;20454;-73
2022/05/16 03:59:27;;;;;;;17.43;6.70;;;13.80;99.90;;;;;;5022818;28;20450;-73
2022/05/16 04:01:53;;;;;;;16.30;6.20;;;13.80;99.90;;;;;;5030614;28;20535;-73
2022/05/16 04:04:20;;;;;;;10.47;5.73;;;13.80;99.90;;;;;;5030802;28;20497;-74
2022/05/16 04:06:47;;;;;;;11.27;5.70;;;13.90;99.90;;;;;;5034129;28;20802;-74
2022/05/16 04:09:13;;;;;;;11.73;6.00;;;13.90;99.90;;;;;;5033091;28;20472;-74
2022/05/16 04:11:41;;;;;;;17.20;6.20;;;13.90;99.90;;;;;;5032018;28;20539;-74
2022/05/16 04:14:09;;;;;;;23.43;6.50;;;14.00;99.90;;;;;;5019028;28;20497;-74
2022/05/16 04:16:37;;;;;;;12.00;6.20;;;14.00;99.90;;;;;;5014068;28;20450;-73
2022/05/16 04:19:04;;;;;;;16.73;6.17;;;14.00;99.90;;;;;;5021766;28;20894;-74
2022/05/16 04:21:31;;;;;;;11.47;6.47;;;14.00;99.90;;;;;;5027395;28;20505;-74
2022/05/16 04:23:58;;;;;;;13.13;6.30;;;14.00;99.90;;;;;;5027084;28;20460;-73
2022/05/16 04:26:24;;;;;;;10.10;5.60;;;14.00;99.90;;;;;;5030844;28;20513;-73
2022/05/16 04:28:52;;;;;;;15.23;5.90;;;14.00;99.90;;;;;;5022461;28;20520;-73
2022/05/16 04:31:19;;;;;;;11.80;6.10;;;14.10;99.90;;;;;;5029998;28;20543;-73
2022/05/16 04:33:46;;;;;;;15.40;6.40;;;14.00;99.90;;;;;;5033189;28;20453;-73
2022/05/16 04:36:12;;;;;;;8.60;5.80;;;14.00;99.90;;;;;;5033287;28;20449;-73
2022/05/16 04:38:39;;;;;;;22.57;6.00;;;14.00;99.90;;;;;;5032278;28;20449;-73
2022/05/16 04:43:52;;;;;;;10.40;5.77;;;14.00;99.90;;;;;;5027906;28;20563;-74
2022/05/16 04:46:19;;;;;;;14.63;5.40;;;14.00;99.90;;;;;;5031551;28;20453;-73
2022/05/16 04:48:46;;;;;;;11.07;5.47;;;14.00;99.90;;;;;;5020547;28;20577;-73
2022/05/16 04:51:13;;;;;;;10.93;5.83;;;14.00;99.90;;;;;;5012608;28;20482;-73
2022/05/16 04:53:40;;;;;;;14.20;5.90;;;14.10;99.90;;;;;;5011412;28;20837;-73
2022/05/16 04:56:07;;;;;;;17.10;6.13;;;14.10;99.90;;;;;;5019533;28;20507;-73
2022/05/16 04:58:34;;;;;;;8.67;5.30;;;14.10;99.90;;;;;;5032612;28;20457;-73
2022/05/16 05:01:03;;;;;;;12.63;5.60;;;14.20;99.90;;;;;;5033037;28;20449;-73
2022/05/16 05:03:29;;;;;;;10.07;5.90;;;14.30;99.90;;;;;;5014136;28;20833;-73
2022/05/16 05:05:56;;;;;;;12.57;5.77;;;14.30;99.90;;;;;;5013152;28;20458;-74
2022/05/16 05:08:23;;;;;;;9.20;6.33;;;14.40;99.90;;;;;;5012651;28;20451;-73
2022/05/16 05:16:23;;;;;;;13.23;6.33;;;14.40;99.90;;;;;;5027395;28;20449;-74
2022/05/16 05:18:50;;;;;;;14.57;7.13;;;14.30;99.90;;;;;;5012809;28;20458;-73
2022/05/16 05:21:16;;;;;;;23.70;7.10;;;14.30;99.90;;;;;;5012917;28;20474;-73
2022/05/16 05:23:43;;;;;;;13.60;6.63;;;14.40;99.90;;;;;;5030481;28;20933;-74
2022/05/16 05:26:12;;;;;;;11.90;6.50;;;14.50;99.90;;;;;;5032728;28;20449;-74
2022/05/16 05:28:39;;;;;;;11.77;6.50;;;14.60;99.90;;;;;;5030362;28;20993;-73
2022/05/16 05:31:12;;;;;;;11.40;6.87;;;14.60;99.90;;;;;;5023421;28;20894;-73
2022/05/16 05:33:40;;;;;;;12.20;6.50;;;14.80;99.90;;;;;;5011722;28;20454;-73
2022/05/16 05:36:08;;;;;;;10.03;6.57;;;14.90;99.90;;;;;;5012906;28;20446;-74
2022/05/16 05:38:36;;;;;;;13.83;6.90;;;15.00;99.90;;;;;;5029922;28;20541;-73
2022/05/16 05:41:03;;;;;;;17.47;6.63;;;15.10;99.90;;;;;;5032035;28;20472;-74
2022/05/16 05:43:30;;;;;;;14.53;7.60;;;15.30;99.90;;;;;;5030069;28;20922;-73
2022/05/16 05:45:56;;;;;;;25.00;6.70;;;15.50;99.90;;;;;;5031350;28;21004;-73
2022/05/16 05:48:23;;;;;;;18.80;6.50;;;15.80;99.90;;;;;;5031619;28;20449;-74
2022/05/16 05:50:51;;;;;;;12.17;6.87;;;16.20;99.90;;;;;;5019314;28;21092;-74
2022/05/16 05:53:18;;;;;;;19.03;7.33;;;16.40;99.90;;;;;;5010787;28;20450;-74
2022/05/16 05:55:47;;;;;;;10.30;6.30;;;16.60;99.90;;;;;;5012268;28;20876;-78
2022/05/16 05:58:13;;;;;;;20.83;7.60;;;16.80;99.90;;;;;;5024316;28;20540;-78
2022/05/16 06:00:40;;;;;;;10.43;7.20;;;16.90;99.90;;;;;;5021962;28;20851;-78
2022/05/16 06:03:07;;;;;;;20.23;7.43;;;17.00;99.90;;;;;;5012318;28;20489;-78
2022/05/16 06:05:34;;;;;;;12.33;6.80;;;17.10;99.90;;;;;;5025166;28;20457;-78
2022/05/16 06:08:02;;;;;;;13.53;6.97;;;17.20;99.90;;;;;;5031098;28;20453;-76
2022/05/16 06:10:29;;;;;;;10.63;6.20;;;17.20;99.90;;;;;;5029662;28;20555;-76
2022/05/16 06:12:56;;;;;;;15.37;6.40;;;17.20;99.90;;;;;;5029625;28;20481;-77
2022/05/16 06:15:22;;;;;;;11.60;6.10;;;17.40;99.90;;;;;;5031139;28;20453;-76
2022/05/16 06:17:50;;;;;;;15.67;7.07;;;17.50;99.90;;;;;;5030822;28;20538;-77
2022/05/16 06:20:17;;;;;;;12.53;5.90;;;17.40;99.90;;;;;;5027177;28;20429;-77
2022/05/16 06:22:43;;;;;;;14.03;7.40;;;17.20;99.90;;;;;;5010728;28;20477;-77
2022/05/16 06:25:32;;;;;;;21.47;6.97;;;17.00;99.90;;;;;;5016132;28;20507;-76
2022/05/16 06:27:59;;;;;;;23.27;9.13;;;16.90;99.90;;;;;;5015550;28;20870;-77
2022/05/16 06:30:26;;;;;;;14.50;8.97;;;16.80;99.90;;;;;;5012748;28;20884;-77
2022/05/16 06:32:53;;;;;;;18.10;8.53;;;16.60;99.90;;;;;;5023760;28;20519;-76
2022/05/16 06:35:20;;;;;;;16.77;8.70;;;16.60;99.90;;;;;;5030158;28;20449;-76
2022/05/16 06:37:47;;;;;;;11.70;7.87;;;16.60;99.90;;;;;;5029620;28;20495;-76
2022/05/16 06:40:17;;;;;;;10.40;7.87;;;16.50;99.90;;;;;;5017462;28;20483;-76
2022/05/16 06:42:44;;;;;;;13.90;8.53;;;16.50;99.90;;;;;;5026088;28;20480;-76
2022/05/16 06:45:12;;;;;;;14.67;7.67;;;16.50;99.90;;;;;;5016900;28;20455;-76
2022/05/16 06:47:39;;;;;;;16.30;7.97;;;16.50;99.90;;;;;;5011991;28;20479;-76
2022/05/16 06:50:06;;;;;;;10.73;6.83;;;16.60;99.90;;;;;;5015379;28;20953;-76
2022/05/16 06:52:33;;;;;;;16.37;7.70;;;16.70;99.90;;;;;;5024182;28;20473;-76
2022/05/16 06:55:00;;;;;;;14.50;8.27;;;16.80;99.90;;;;;;5027270;28;20457;-76
2022/05/16 06:57:29;;;;;;;14.20;9.10;;;17.10;99.90;;;;;;5016262;28;20465;-76
2022/05/16 06:59:55;;;;;;;10.47;7.10;;;17.50;99.90;;;;;;5016889;28;20458;-76
2022/05/16 07:02:22;;;;;;;17.47;7.83;;;17.70;99.90;;;;;;5026251;28;20449;-76
2022/05/16 07:04:49;;;;;;;10.33;6.60;;;17.80;99.90;;;;;;5029789;28;20438;-76
2022/05/16 07:07:15;;;;;;;16.03;6.93;;;17.90;99.90;;;;;;5024165;28;20421;-76
2022/05/16 07:09:42;;;;;;;11.23;7.03;;;18.10;99.90;;;;;;5027299;28;20439;-76
2022/05/16 07:12:10;;;;;;;10.23;6.90;;;18.00;99.90;;;;;;5028078;28;20463;-76
2022/05/16 07:14:38;;;;;;;13.17;7.43;;;18.10;99.90;;;;;;5025665;28;20829;-76
2022/05/16 07:17:05;;;;;;;25.05;7.03;;;18.20;99.90;;;;;;5025712;28;20532;-75
2022/05/16 07:19:34;;;;;;;20.63;6.87;;;18.10;99.90;;;;;;5011578;28;20246;-75
2022/05/16 07:22:01;;;;;;;14.00;6.83;;;18.10;99.90;;;;;;5018883;28;20439;-75
2022/05/16 07:24:28;;;;;;;9.47;6.93;;;18.10;99.90;;;;;;5013299;28;20508;-75
2022/05/16 07:29:40;;;;;;;11.10;5.83;;;17.90;99.90;;;;;;5024320;28;21034;-75
2022/05/16 07:32:10;;;;;;;19.97;6.37;;;17.80;99.90;;;;;;5029380;28;20467;-74
2022/05/16 07:34:36;;;;;;;11.37;6.33;;;17.70;99.90;;;;;;5020381;28;20479;-75
2022/05/16 07:37:03;;;;;;;15.00;6.60;;;17.80;99.90;;;;;;5032505;28;20436;-75
2022/05/16 07:39:30;;;;;;;12.93;7.00;;;17.80;99.90;;;;;;5029592;28;20995;-74
2022/05/16 07:41:59;;;;;;;15.63;6.67;;;17.80;99.90;;;;;;5025413;28;20452;-75
2022/05/16 07:44:26;;;;;;;11.40;6.40;;;17.80;99.90;;;;;;5013451;28;20871;-74
2022/05/16 07:46:54;;;;;;;14.60;6.83;;;17.80;99.90;;;;;;5015485;28;20429;-75
2022/05/16 07:49:22;;;;;;;15.97;7.27;;;17.70;99.90;;;;;;5029243;28;20836;-75
2022/05/16 07:51:49;;;;;;;13.53;6.33;;;17.80;99.90;;;;;;5030273;28;20468;-76
2022/05/16 07:54:15;;;;;;;18.30;7.77;;;17.90;99.90;;;;;;5027729;28;20516;-75
2022/05/16 07:56:42;;;;;;;17.77;7.13;;;18.10;99.90;;;;;;5020407;28;20474;-74
2022/05/16 07:59:09;;;;;;;16.90;6.70;;;18.30;99.90;;;;;;5031564;28;20461;-75
2022/05/16 08:01:36;;;;;;;14.17;7.03;;;18.50;99.90;;;;;;5026216;28;20917;-74
2022/05/16 08:04:06;;;;;;;15.23;7.10;;;18.70;99.90;;;;;;5013681;28;20431;-74
2022/05/16 08:06:33;;;;;;;13.83;7.00;;;18.80;99.90;;;;;;5017976;28;20432;-75
2022/05/16 08:11:44;;;;;;;16.33;7.30;;;19.20;99.90;;;;;;5014508;28;20599;-75
2022/05/16 08:14:11;;;;;;;9.50;5.67;;;19.60;99.90;;;;;;5020370;28;20432;-75
2022/05/16 08:16:38;;;;;;;14.20;6.30;;;20.10;99.90;;;;;;5022363;28;21081;-75
2022/05/16 08:19:07;;;;;;;13.63;6.53;;;20.70;99.90;;;;;;5032159;28;20454;-75
2022/05/16 08:21:34;;;;;;;13.33;6.27;;;21.30;99.90;;;;;;5012388;28;20437;-75
2022/05/16 08:24:02;;;;;;;8.67;5.83;;;21.60;99.90;;;;;;5012648;28;20951;-75
2022/05/16 08:26:29;;;;;;;14.63;6.00;;;22.00;99.90;;;;;;5013440;28;20425;-75
2022/05/16 08:28:56;;;;;;;12.83;6.43;;;22.10;99.90;;;;;;5029527;28;20949;-75
2022/05/16 08:31:28;;;;;;;20.63;6.33;;;22.00;99.90;;;;;;5027296;28;20531;-75
2022/05/16 08:33:55;;;;;;;20.80;6.93;;;21.70;99.90;;;;;;5012344;28;20451;-75
2022/05/16 08:41:54;;;;;;;16.67;6.43;;;21.30;99.90;;;;;;5031656;28;20453;-75
2022/05/16 08:44:23;;;;;;;14.20;5.97;;;21.80;99.90;;;;;;5020453;28;20458;-75
2022/05/16 08:46:58;;;;;;;13.07;5.63;;;22.10;99.90;;;;;;5013224;28;20462;-75
2022/05/16 08:49:31;;;;;;;12.07;5.90;;;22.20;99.90;;;;;;5018650;28;20456;-74
2022/05/16 08:52:07;;;;;;;18.20;6.10;;;22.20;99.90;;;;;;5018592;28;20540;-75
2022/05/16 08:54:40;;;;;;;11.50;5.80;;;22.30;99.90;;;;;;5012527;28;20481;-75
2022/05/16 08:57:12;;;;;;;8.93;5.50;;;22.40;99.90;;;;;;5018086;28;20457;-75
2022/05/16 08:59:42;;;;;;;13.90;6.47;;;22.50;99.90;;;;;;5025304;28;20454;-75
2022/05/16 09:02:15;;;;;;;8.23;5.07;;;22.70;99.90;;;;;;5013543;28;20466;-75
2022/05/16 09:04:48;;;;;;;15.70;5.83;;;23.10;99.90;;;;;;5011755;28;21005;-74
2022/05/16 09:07:23;;;;;;;13.67;6.20;;;23.40;99.90;;;;;;5012391;28;20456;-75
2022/05/16 09:09:58;;;;;;;16.03;6.20;;;23.60;99.90;;;;;;5024092;28;20454;-75
2022/05/16 09:12:29;;;;;;;11.80;6.13;;;24.00;99.90;;;;;;5019106;28;20493;-75
2022/05/16 09:15:09;;;;;;;7.67;5.37;;;24.30;99.90;;;;;;5012274;28;20462;-75
2022/05/16 09:17:55;;;;;;;11.23;5.20;;;24.10;99.90;;;;;;5030769;28;20720;-75
2022/05/16 09:20:33;;;;;;;16.17;5.80;;;23.70;99.90;;;;;;5024805;28;20492;-74
2022/05/16 09:23:09;;;;;;;7.50;4.90;;;23.30;99.90;;;;;;5027091;28;20533;-74
2022/05/16 09:25:46;;;;;;;9.77;5.00;;;23.50;99.90;;;;;;5022858;28;20548;-75
2022/05/16 09:31:01;;;;;;;15.70;6.30;;;24.00;99.90;;;;;;5025433;28;20445;-75
2022/05/16 09:33:30;;;;;;;11.17;5.80;;;23.90;99.90;;;;;;5011685;28;20498;-74
2022/05/16 09:36:01;;;;;;;10.07;5.77;;;24.00;99.90;;;;;;5012155;28;20450;-75
2022/05/16 09:38:30;;;;;;;7.40;5.63;;;24.00;99.90;;;;;;5012832;28;20465;-75
2022/05/16 09:41:09;;;;;;;11.43;5.70;;;23.90;99.90;;;;;;5031346;28;20458;-75
2022/05/16 09:43:42;;;;;;;8.97;5.77;;;23.90;99.90;;;;;;5021491;28;20841;-75
2022/05/16 09:46:26;;;;;;;7.93;5.20;;;23.90;99.90;;;;;;5010790;28;20466;-76
2022/05/16 09:49:03;;;;;;;12.67;5.17;;;24.00;99.90;;;;;;5015960;28;20880;-75
2022/05/16 09:51:30;;;;;;;9.57;5.60;;;24.00;99.90;;;;;;5030355;28;20577;-76
2022/05/16 09:54:13;;;;;;;10.93;6.73;;;24.00;99.90;;;;;;5029266;28;20465;-76
2022/05/16 09:56:51;;;;;;;10.47;5.70;;;24.10;99.90;;;;;;5028536;28;20949;-75
2022/05/16 09:59:32;;;;;;;14.13;6.50;;;24.20;99.90;;;;;;5018281;28;20507;-75
2022/05/16 10:02:10;;;;;;;10.40;6.07;;;24.50;99.90;;;;;;5029927;28;20507;-75
2022/05/16 10:04:40;;;;;;;12.63;6.17;;;24.80;99.90;;;;;;5026761;28;20574;-74
2022/05/16 10:07:07;;;;;;;13.40;5.57;;;25.10;99.90;;;;;;5027090;28;21138;-75
2022/05/16 10:09:38;;;;;;;12.27;5.73;;;25.00;99.90;;;;;;5029442;28;20503;-75
2022/05/16 10:12:08;;;;;;;8.87;5.70;;;25.00;99.90;;;;;;5011412;28;20493;-75
2022/05/16 10:14:37;;;;;;;8.97;6.03;;;25.10;99.90;;;;;;5009510;28;20458;-75
2022/05/16 10:17:07;;;;;;;5.90;5.30;;;25.00;99.90;;;;;;5022630;28;20612;-75
2022/05/16 10:19:35;;;;;;;12.80;6.13;;;25.10;99.90;;;;;;5027166;28;20465;-75
2022/05/16 10:22:05;;;;;;;9.30;5.80;;;25.20;99.90;;;;;;5030071;28;20472;-76
2022/05/16 10:24:38;;;;;;;10.83;5.50;;;25.30;99.90;;;;;;5030350;28;20527;-75
2022/05/16 10:27:09;;;;;;;18.37;5.30;;;25.50;99.90;;;;;;5029950;28;20457;-75
2022/05/16 10:29:40;;;;;;;15.43;7.20;;;25.70;99.90;;;;;;5015818;28;20520;-75
2022/05/16 10:35:02;;;;;;;11.40;5.77;;;25.30;99.90;;;;;;5017094;28;20445;-75
2022/05/16 10:37:30;;;;;;;18.17;5.90;;;25.20;99.90;;;;;;5027430;28;20903;-75
2022/05/16 10:40:05;;;;;;;13.10;6.20;;;25.10;99.90;;;;;;5030034;28;20458;-75
2022/05/16 10:42:37;;;;;;;9.43;6.17;;;25.20;99.90;;;;;;5030547;28;20887;-75
2022/05/16 10:45:10;;;;;;;21.73;7.07;;;25.30;99.90;;;;;;5021103;28;20896;-76
2022/05/16 10:47:41;;;;;;;9.30;5.20;;;25.40;99.90;;;;;;5012574;28;20537;-75
2022/05/16 10:50:13;;;;;;;17.53;6.13;;;25.30;99.90;;;;;;5029910;28;21015;-76
2022/05/16 10:52:44;;;;;;;10.07;6.00;;;25.30;99.90;;;;;;5009648;28;20537;-75
2022/05/16 10:55:12;;;;;;;10.90;5.57;;;25.30;99.90;;;;;;5026869;28;20499;-75
2022/05/16 10:58:03;;;;;;;7.47;5.20;;;25.40;99.90;;;;;;5027139;28;20514;-75
2022/05/16 11:00:35;;;;;;;11.47;5.30;;;25.70;99.90;;;;;;5025732;28;20449;-75
2022/05/16 11:03:36;;;;;;;13.20;5.90;;;25.80;99.90;;;;;;5025651;28;20466;-76
2022/05/16 11:06:20;;;;;;;11.23;5.97;;;26.00;99.90;;;;;;5015031;28;20950;-75
2022/05/16 11:08:57;;;;;;;13.03;6.03;;;26.00;99.90;;;;;;5020162;28;20449;-76
2022/05/16 11:11:30;;;;;;;11.90;5.20;;;26.50;99.90;;;;;;5031860;28;20892;-76
2022/05/16 11:14:05;;;;;;;8.30;5.40;;;26.70;99.90;;;;;;5031098;28;20499;-76
2022/05/16 11:16:34;;;;;;;20.43;5.40;;;26.70;99.90;;;;;;5037599;28;20456;-75
2022/05/16 11:19:16;;;;;;;9.43;5.10;;;26.60;99.90;;;;;;5030087;28;20802;-76
2022/05/16 11:21:48;;;;;;;8.87;5.30;;;27.00;99.90;;;;;;5031721;28;20473;-75
2022/05/16 11:24:25;;;;;;;9.80;4.37;;;27.10;99.90;;;;;;5033112;28;20464;-76
2022/05/16 11:27:02;;;;;;;12.77;5.47;;;27.40;99.90;;;;;;5022938;28;20469;-76
2022/05/16 11:29:36;;;;;;;14.13;5.10;;;27.30;99.90;;;;;;5014061;28;20453;-76
2022/05/16 11:32:12;;;;;;;9.83;5.40;;;27.30;99.90;;;;;;5016061;28;20544;-76
2022/05/16 11:34:50;;;;;;;14.13;5.07;;;27.10;99.90;;;;;;5029721;28;20461;-76
2022/05/16 11:37:27;;;;;;;11.23;4.73;;;27.20;99.90;;;;;;5021457;28;20465;-76
2022/05/16 11:40:00;;;;;;;7.17;4.53;;;27.10;99.90;;;;;;5034003;28;20506;-77
2022/05/16 11:42:38;;;;;;;5.83;4.33;;;26.90;99.90;;;;;;5021948;28;20469;-77
2022/05/16 11:45:16;;;;;;;8.50;4.30;;;26.90;99.90;;;;;;5016675;28;20457;-76
2022/05/16 11:47:49;;;;;;;13.90;4.47;;;27.10;99.90;;;;;;5027785;28;20544;-76
2022/05/16 11:50:23;;;;;;;5.43;4.80;;;27.10;99.90;;;;;;5024044;28;20454;-77
2022/05/16 11:52:56;;;;;;;8.90;4.30;;;27.10;99.90;;;;;;5014297;28;22159;-76
2022/05/16 12:01:03;;;;;;;14.10;4.47;;;26.60;99.90;;;;;;5022035;28;20454;-76
2022/05/16 12:03:36;;;;;;;9.73;5.47;;;26.40;99.90;;;;;;5020354;28;20509;-76
2022/05/16 12:06:23;;;;;;;15.47;4.70;;;26.20;99.90;;;;;;5013937;28;20963;-76
2022/05/16 12:08:50;;;;;;;6.60;4.30;;;26.10;99.90;;;;;;5021306;28;20467;-76
2022/05/16 12:11:22;;;;;;;7.60;4.97;;;25.90;99.90;;;;;;5028653;28;20477;-76
2022/05/16 12:14:09;;;;;;;7.40;4.50;;;25.60;99.90;;;;;;5015085;28;20513;-76
2022/05/16 12:16:50;;;;;;;9.83;5.70;;;25.60;99.90;;;;;;5035480;28;20499;-76
2022/05/16 12:19:25;;;;;;;15.27;5.47;;;25.60;99.90;;;;;;5031271;28;20461;-75
2022/05/16 12:21:58;;;;;;;8.67;5.20;;;25.50;99.90;;;;;;5025847;28;20556;-76
2022/05/16 12:24:32;;;;;;;9.00;5.10;;;25.50;99.90;;;;;;5025138;28;20947;-76
2022/05/16 12:27:06;;;;;;;10.43;5.27;;;25.40;99.90;;;;;;5015916;28;20520;-75
2022/05/16 12:29:52;;;;;;;10.03;5.67;;;25.20;99.90;;;;;;5023196;28;20536;-75
2022/05/16 12:32:44;;;;;;;8.87;6.00;;;25.10;99.90;;;;;;5021003;28;20570;-76
2022/05/16 12:35:14;;;;;;;9.87;5.43;;;25.00;99.90;;;;;;5013833;28;20451;-76
2022/05/16 12:37:41;;;;;;;9.07;4.80;;;24.80;99.90;;;;;;5015353;28;21059;-76
2022/05/16 12:40:14;;;;;;;12.80;5.17;;;24.90;99.90;;;;;;5015509;28;20938;-76
2022/05/16 12:43:03;;;;;;;8.57;4.43;;;24.70;99.90;;;;;;5013665;28;20474;-76
2022/05/16 12:46:02;;;;;;;12.30;4.70;;;24.60;99.90;;;;;;5013275;28;20946;-76
2022/05/16 12:48:50;;;;;;;19.03;5.17;;;24.70;99.90;;;;;;5011578;28;20450;-76
2022/05/16 12:51:41;;;;;;;7.87;4.47;;;24.80;99.90;;;;;;5024401;28;21075;-76
2022/05/16 12:54:36;;;;;;;11.87;5.10;;;25.00;99.90;;;;;;5032532;28;20437;-76
2022/05/16 12:57:18;;;;;;;7.27;4.73;;;25.10;99.90;;;;;;5030850;28;20480;-75
2022/05/16 12:59:57;;;;;;;15.27;5.40;;;25.30;99.90;;;;;;5031847;28;20487;-75
2022/05/16 13:02:29;;;;;;;9.50;5.87;;;25.40;99.90;;;;;;5012842;28;20474;-75
2022/05/16 13:05:11;;;;;;;9.77;5.30;;;25.50;99.90;;;;;;5012560;28;20450;-76
2022/05/16 13:07:53;;;;;;;8.03;5.20;;;25.80;99.90;;;;;;5020932;28;20472;-76
2022/05/16 13:10:30;;;;;;;8.40;5.60;;;26.00;99.90;;;;;;5026957;28;20508;-75
2022/05/16 13:13:04;;;;;;;8.30;6.40;;;25.60;99.90;;;;;;5012437;28;20494;-75
2022/05/16 13:15:38;;;;;;;12.67;5.63;;;25.90;99.90;;;;;;5023949;28;20540;-75
2022/05/16 13:18:12;;;;;;;13.40;6.03;;;25.90;99.90;;;;;;5041192;28;20853;-75
2022/05/16 13:20:43;;;;;;;13.40;5.37;;;25.80;99.90;;;;;;5019906;28;20457;-76
2022/05/16 13:23:14;;;;;;;10.70;5.23;;;25.80;99.90;;;;;;5020366;28;20458;-75
2022/05/16 13:31:02;;;;;;;14.23;5.57;;;25.30;99.90;;;;;;4978313;28;20529;-75
2022/05/16 13:33:31;;;;;;;8.03;5.07;;;25.30;99.90;;;;;;5012354;28;20486;-76
2022/05/16 13:36:14;;;;;;;15.60;5.70;;;25.40;99.90;;;;;;5012424;28;20455;-76
2022/05/16 13:38:42;;;;;;;8.30;5.50;;;25.60;99.90;;;;;;5010480;28;20465;-75